sensor_id;sensor_type;location;lat;lon;timestamp;pressure;altitude;pressure_sealevel;temperature
15626;BMP180;7912;51.376;6.126;2023-09-19T00:00:47;100525.00;;;19.00
15626;BMP180;7912;51.376;6.126;2023-09-19T00:03:16;100522.00;;;19.00
15626;BMP180;7912;51.376;6.126;2023-09-19T00:05:44;100520.00;;;19.00
15626;BMP180;7912;51.376;6.126;2023-09-19T00:08:13;100520.00;;;19.00
15626;BMP180;7912;51.376;6.126;2023-09-19T00:10:43;100528.00;;;19.00
15626;BMP180;7912;51.376;6.126;2023-09-19T00:13:11;100532.00;;;19.00
15626;BMP180;7912;51.376;6.126;2023-09-19T00:15:46;100534.00;;;19.00
15626;BMP180;7912;51.376;6.126;2023-09-19T00:18:21;100533.00;;;18.90
15626;BMP180;7912;51.376;6.126;2023-09-19T00:20:50;100523.00;;;18.90
15626;BMP180;7912;51.376;6.126;2023-09-19T00:23:19;100536.00;;;18.90
15626;BMP180;7912;51.376;6.126;2023-09-19T00:25:48;100543.00;;;18.90
15626;BMP180;7912;51.376;6.126;2023-09-19T00:28:16;100539.00;;;18.90
15626;BMP180;7912;51.376;6.126;2023-09-19T00:31:04;100545.00;;;18.80
15626;BMP180;7912;51.376;6.126;2023-09-19T00:33:35;100550.00;;;18.80
15626;BMP180;7912;51.376;6.126;2023-09-19T00:36:03;100544.00;;;18.80
15626;BMP180;7912;51.376;6.126;2023-09-19T00:38:32;100552.00;;;18.70
15626;BMP180;7912;51.376;6.126;2023-09-19T00:41:00;100554.00;;;18.80
15626;BMP180;7912;51.376;6.126;2023-09-19T00:43:28;100566.00;;;18.70
15626;BMP180;7912;51.376;6.126;2023-09-19T00:45:56;100557.00;;;18.70
15626;BMP180;7912;51.376;6.126;2023-09-19T00:48:26;100563.00;;;18.70
15626;BMP180;7912;51.376;6.126;2023-09-19T00:51:02;100554.00;;;18.70
15626;BMP180;7912;51.376;6.126;2023-09-19T00:53:34;100560.00;;;18.70
15626;BMP180;7912;51.376;6.126;2023-09-19T00:56:03;100554.00;;;18.70
15626;BMP180;7912;51.376;6.126;2023-09-19T00:58:36;100563.00;;;18.60
15626;BMP180;7912;51.376;6.126;2023-09-19T01:01:07;100567.00;;;18.60
15626;BMP180;7912;51.376;6.126;2023-09-19T01:03:36;100588.00;;;18.60
15626;BMP180;7912;51.376;6.126;2023-09-19T01:06:04;100578.00;;;18.60
15626;BMP180;7912;51.376;6.126;2023-09-19T01:08:32;100586.00;;;18.60
15626;BMP180;7912;51.376;6.126;2023-09-19T01:16:38;100603.00;;;18.50
15626;BMP180;7912;51.376;6.126;2023-09-19T01:22:26;100602.00;;;18.40
15626;BMP180;7912;51.376;6.126;2023-09-19T01:28:34;100612.00;;;18.40
15626;BMP180;7912;51.376;6.126;2023-09-19T01:31:11;100612.00;;;18.30
15626;BMP180;7912;51.376;6.126;2023-09-19T01:34:02;100611.00;;;18.30
15626;BMP180;7912;51.376;6.126;2023-09-19T01:36:37;100612.00;;;18.30
15626;BMP180;7912;51.376;6.126;2023-09-19T01:39:10;100613.00;;;18.30
15626;BMP180;7912;51.376;6.126;2023-09-19T01:47:26;100619.00;;;18.20
15626;BMP180;7912;51.376;6.126;2023-09-19T01:53:15;100619.00;;;18.20
15626;BMP180;7912;51.376;6.126;2023-09-19T01:55:49;100621.00;;;18.20
15626;BMP180;7912;51.376;6.126;2023-09-19T01:58:29;100624.00;;;18.20
15626;BMP180;7912;51.376;6.126;2023-09-19T02:01:01;100623.00;;;18.20
15626;BMP180;7912;51.376;6.126;2023-09-19T02:03:30;100625.00;;;18.20
15626;BMP180;7912;51.376;6.126;2023-09-19T02:06:01;100627.00;;;18.20
15626;BMP180;7912;51.376;6.126;2023-09-19T02:08:31;100622.00;;;18.20
15626;BMP180;7912;51.376;6.126;2023-09-19T02:11:01;100626.00;;;18.20
15626;BMP180;7912;51.376;6.126;2023-09-19T02:13:31;100634.00;;;18.20
15626;BMP180;7912;51.376;6.126;2023-09-19T02:15:59;100627.00;;;18.20
15626;BMP180;7912;51.376;6.126;2023-09-19T02:18:27;100638.00;;;18.20
15626;BMP180;7912;51.376;6.126;2023-09-19T02:20:58;100638.00;;;18.20
15626;BMP180;7912;51.376;6.126;2023-09-19T02:23:25;100639.00;;;18.20
15626;BMP180;7912;51.376;6.126;2023-09-19T02:25:54;100646.00;;;18.20
15626;BMP180;7912;51.376;6.126;2023-09-19T02:28:22;100635.00;;;18.20
15626;BMP180;7912;51.376;6.126;2023-09-19T02:30:50;100641.00;;;18.20
15626;BMP180;7912;51.376;6.126;2023-09-19T02:33:17;100647.00;;;18.20
15626;BMP180;7912;51.376;6.126;2023-09-19T02:35:48;100630.00;;;18.20
15626;BMP180;7912;51.376;6.126;2023-09-19T02:38:16;100645.00;;;18.20
15626;BMP180;7912;51.376;6.126;2023-09-19T02:40:48;100651.00;;;18.10
15626;BMP180;7912;51.376;6.126;2023-09-19T02:43:15;100654.00;;;18.10
15626;BMP180;7912;51.376;6.126;2023-09-19T02:45:44;100634.00;;;18.10
15626;BMP180;7912;51.376;6.126;2023-09-19T02:48:12;100648.00;;;18.10
15626;BMP180;7912;51.376;6.126;2023-09-19T02:50:40;100639.00;;;18.10
15626;BMP180;7912;51.376;6.126;2023-09-19T02:53:08;100656.00;;;18.10
15626;BMP180;7912;51.376;6.126;2023-09-19T02:55:35;100651.00;;;18.10
15626;BMP180;7912;51.376;6.126;2023-09-19T02:58:06;100651.00;;;18.10
15626;BMP180;7912;51.376;6.126;2023-09-19T03:00:43;100635.00;;;18.00
15626;BMP180;7912;51.376;6.126;2023-09-19T03:03:15;100650.00;;;18.00
15626;BMP180;7912;51.376;6.126;2023-09-19T03:05:46;100652.00;;;18.00
15626;BMP180;7912;51.376;6.126;2023-09-19T03:08:15;100647.00;;;18.00
15626;BMP180;7912;51.376;6.126;2023-09-19T03:10:46;100652.00;;;18.00
15626;BMP180;7912;51.376;6.126;2023-09-19T03:13:16;100654.00;;;17.90
15626;BMP180;7912;51.376;6.126;2023-09-19T03:15:44;100656.00;;;17.90
15626;BMP180;7912;51.376;6.126;2023-09-19T03:18:14;100652.00;;;17.90
15626;BMP180;7912;51.376;6.126;2023-09-19T03:20:53;100654.00;;;17.90
15626;BMP180;7912;51.376;6.126;2023-09-19T03:23:23;100665.00;;;17.90
15626;BMP180;7912;51.376;6.126;2023-09-19T03:25:50;100660.00;;;17.90
15626;BMP180;7912;51.376;6.126;2023-09-19T03:28:19;100665.00;;;17.90
15626;BMP180;7912;51.376;6.126;2023-09-19T03:31:03;100669.00;;;17.80
15626;BMP180;7912;51.376;6.126;2023-09-19T03:33:31;100669.00;;;17.80
15626;BMP180;7912;51.376;6.126;2023-09-19T03:36:01;100676.00;;;17.80
15626;BMP180;7912;51.376;6.126;2023-09-19T03:38:33;100660.00;;;17.80
15626;BMP180;7912;51.376;6.126;2023-09-19T03:41:03;100661.00;;;17.80
15626;BMP180;7912;51.376;6.126;2023-09-19T03:43:33;100663.00;;;17.80
15626;BMP180;7912;51.376;6.126;2023-09-19T03:46:04;100665.00;;;17.80
15626;BMP180;7912;51.376;6.126;2023-09-19T03:48:32;100667.00;;;17.80
15626;BMP180;7912;51.376;6.126;2023-09-19T03:51:00;100655.00;;;17.80
15626;BMP180;7912;51.376;6.126;2023-09-19T03:53:28;100650.00;;;17.80
15626;BMP180;7912;51.376;6.126;2023-09-19T03:55:55;100656.00;;;17.80
15626;BMP180;7912;51.376;6.126;2023-09-19T03:58:23;100650.00;;;17.80
15626;BMP180;7912;51.376;6.126;2023-09-19T04:00:50;100654.00;;;17.80
15626;BMP180;7912;51.376;6.126;2023-09-19T04:03:18;100651.00;;;17.80
15626;BMP180;7912;51.376;6.126;2023-09-19T04:05:48;100641.00;;;17.80
15626;BMP180;7912;51.376;6.126;2023-09-19T04:08:15;100632.00;;;17.90
15626;BMP180;7912;51.376;6.126;2023-09-19T04:10:43;100643.00;;;17.90
15626;BMP180;7912;51.376;6.126;2023-09-19T04:13:11;100644.00;;;17.90
15626;BMP180;7912;51.376;6.126;2023-09-19T04:15:38;100652.00;;;17.90
15626;BMP180;7912;51.376;6.126;2023-09-19T04:18:07;100645.00;;;17.90
15626;BMP180;7912;51.376;6.126;2023-09-19T04:20:35;100647.00;;;17.90
15626;BMP180;7912;51.376;6.126;2023-09-19T04:23:02;100655.00;;;18.00
15626;BMP180;7912;51.376;6.126;2023-09-19T04:25:32;100655.00;;;18.00
15626;BMP180;7912;51.376;6.126;2023-09-19T04:28:00;100653.00;;;18.00
15626;BMP180;7912;51.376;6.126;2023-09-19T04:30:28;100650.00;;;18.00
15626;BMP180;7912;51.376;6.126;2023-09-19T04:32:55;100651.00;;;18.10
15626;BMP180;7912;51.376;6.126;2023-09-19T04:35:23;100645.00;;;18.10
15626;BMP180;7912;51.376;6.126;2023-09-19T04:37:50;100653.00;;;18.10
15626;BMP180;7912;51.376;6.126;2023-09-19T04:40:18;100655.00;;;18.10
15626;BMP180;7912;51.376;6.126;2023-09-19T04:42:54;100662.00;;;18.10
15626;BMP180;7912;51.376;6.126;2023-09-19T04:45:28;100662.00;;;18.10
15626;BMP180;7912;51.376;6.126;2023-09-19T04:47:56;100673.00;;;18.10
15626;BMP180;7912;51.376;6.126;2023-09-19T04:50:23;100676.00;;;18.10
15626;BMP180;7912;51.376;6.126;2023-09-19T04:52:55;100685.00;;;18.10
15626;BMP180;7912;51.376;6.126;2023-09-19T04:55:22;100694.00;;;18.10
15626;BMP180;7912;51.376;6.126;2023-09-19T04:57:51;100702.00;;;18.20
15626;BMP180;7912;51.376;6.126;2023-09-19T05:00:22;100692.00;;;18.20
15626;BMP180;7912;51.376;6.126;2023-09-19T05:02:58;100710.00;;;18.10
15626;BMP180;7912;51.376;6.126;2023-09-19T05:05:26;100718.00;;;18.20
15626;BMP180;7912;51.376;6.126;2023-09-19T05:07:54;100715.00;;;18.20
15626;BMP180;7912;51.376;6.126;2023-09-19T05:10:23;100707.00;;;18.30
15626;BMP180;7912;51.376;6.126;2023-09-19T05:12:56;100726.00;;;18.30
15626;BMP180;7912;51.376;6.126;2023-09-19T05:15:23;100718.00;;;18.40
15626;BMP180;7912;51.376;6.126;2023-09-19T05:17:52;100716.00;;;18.40
15626;BMP180;7912;51.376;6.126;2023-09-19T05:20:24;100740.00;;;18.40
15626;BMP180;7912;51.376;6.126;2023-09-19T05:23:05;100737.00;;;18.50
15626;BMP180;7912;51.376;6.126;2023-09-19T05:25:39;100727.00;;;18.50
15626;BMP180;7912;51.376;6.126;2023-09-19T05:28:09;100721.00;;;18.50
15626;BMP180;7912;51.376;6.126;2023-09-19T05:30:38;100740.00;;;18.60
15626;BMP180;7912;51.376;6.126;2023-09-19T05:33:07;100746.00;;;18.60
15626;BMP180;7912;51.376;6.126;2023-09-19T05:35:36;100752.00;;;18.60
15626;BMP180;7912;51.376;6.126;2023-09-19T05:38:09;100754.00;;;18.60
15626;BMP180;7912;51.376;6.126;2023-09-19T05:40:37;100733.00;;;18.70
15626;BMP180;7912;51.376;6.126;2023-09-19T05:43:08;100755.00;;;18.70
15626;BMP180;7912;51.376;6.126;2023-09-19T05:45:38;100752.00;;;18.70
15626;BMP180;7912;51.376;6.126;2023-09-19T05:48:13;100752.00;;;18.70
15626;BMP180;7912;51.376;6.126;2023-09-19T05:50:43;100763.00;;;18.70
15626;BMP180;7912;51.376;6.126;2023-09-19T05:53:16;100758.00;;;18.80
15626;BMP180;7912;51.376;6.126;2023-09-19T05:55:46;100757.00;;;18.80
15626;BMP180;7912;51.376;6.126;2023-09-19T05:58:15;100760.00;;;18.80
15626;BMP180;7912;51.376;6.126;2023-09-19T06:00:45;100742.00;;;18.80
15626;BMP180;7912;51.376;6.126;2023-09-19T06:03:14;100746.00;;;18.80
15626;BMP180;7912;51.376;6.126;2023-09-19T06:05:42;100764.00;;;18.80
15626;BMP180;7912;51.376;6.126;2023-09-19T06:08:10;100749.00;;;18.80
15626;BMP180;7912;51.376;6.126;2023-09-19T06:10:37;100761.00;;;18.80
15626;BMP180;7912;51.376;6.126;2023-09-19T06:16:30;100754.00;;;18.80
15626;BMP180;7912;51.376;6.126;2023-09-19T06:19:01;100746.00;;;18.90
15626;BMP180;7912;51.376;6.126;2023-09-19T06:21:31;100746.00;;;18.90
15626;BMP180;7912;51.376;6.126;2023-09-19T06:23:59;100734.00;;;19.00
15626;BMP180;7912;51.376;6.126;2023-09-19T06:26:29;100752.00;;;19.00
15626;BMP180;7912;51.376;6.126;2023-09-19T06:28:58;100734.00;;;19.00
15626;BMP180;7912;51.376;6.126;2023-09-19T06:31:30;100741.00;;;19.10
15626;BMP180;7912;51.376;6.126;2023-09-19T06:34:03;100757.00;;;19.10
15626;BMP180;7912;51.376;6.126;2023-09-19T06:36:32;100755.00;;;19.10
15626;BMP180;7912;51.376;6.126;2023-09-19T06:39:00;100762.00;;;19.20
15626;BMP180;7912;51.376;6.126;2023-09-19T06:41:31;100765.00;;;19.20
15626;BMP180;7912;51.376;6.126;2023-09-19T06:43:58;100749.00;;;19.20
15626;BMP180;7912;51.376;6.126;2023-09-19T06:46:29;100769.00;;;19.30
15626;BMP180;7912;51.376;6.126;2023-09-19T06:49:01;100766.00;;;19.30
15626;BMP180;7912;51.376;6.126;2023-09-19T06:51:33;100766.00;;;19.40
15626;BMP180;7912;51.376;6.126;2023-09-19T06:54:09;100774.00;;;19.40
15626;BMP180;7912;51.376;6.126;2023-09-19T06:56:37;100763.00;;;19.50
15626;BMP180;7912;51.376;6.126;2023-09-19T06:59:05;100768.00;;;19.60
15626;BMP180;7912;51.376;6.126;2023-09-19T07:01:34;100770.00;;;19.60
15626;BMP180;7912;51.376;6.126;2023-09-19T07:04:05;100774.00;;;19.70
15626;BMP180;7912;51.376;6.126;2023-09-19T07:06:37;100764.00;;;19.70
15626;BMP180;7912;51.376;6.126;2023-09-19T07:09:05;100781.00;;;19.80
15626;BMP180;7912;51.376;6.126;2023-09-19T07:11:34;100786.00;;;19.80
15626;BMP180;7912;51.376;6.126;2023-09-19T07:14:02;100778.00;;;19.80
15626;BMP180;7912;51.376;6.126;2023-09-19T07:16:31;100785.00;;;19.90
15626;BMP180;7912;51.376;6.126;2023-09-19T07:18:59;100778.00;;;19.90
15626;BMP180;7912;51.376;6.126;2023-09-19T07:21:28;100784.00;;;19.90
15626;BMP180;7912;51.376;6.126;2023-09-19T07:24:05;100778.00;;;20.00
15626;BMP180;7912;51.376;6.126;2023-09-19T07:26:39;100779.00;;;20.00
15626;BMP180;7912;51.376;6.126;2023-09-19T07:29:11;100776.00;;;20.10
15626;BMP180;7912;51.376;6.126;2023-09-19T07:31:44;100778.00;;;20.10
15626;BMP180;7912;51.376;6.126;2023-09-19T07:34:11;100779.00;;;20.10
15626;BMP180;7912;51.376;6.126;2023-09-19T07:36:43;100769.00;;;20.10
15626;BMP180;7912;51.376;6.126;2023-09-19T07:39:18;100788.00;;;20.10
15626;BMP180;7912;51.376;6.126;2023-09-19T07:41:49;100788.00;;;20.20
15626;BMP180;7912;51.376;6.126;2023-09-19T07:44:18;100780.00;;;20.30
15626;BMP180;7912;51.376;6.126;2023-09-19T07:46:49;100782.00;;;20.30
15626;BMP180;7912;51.376;6.126;2023-09-19T07:49:18;100779.00;;;20.50
15626;BMP180;7912;51.376;6.126;2023-09-19T07:51:46;100772.00;;;20.60
15626;BMP180;7912;51.376;6.126;2023-09-19T07:54:20;100779.00;;;20.70
15626;BMP180;7912;51.376;6.126;2023-09-19T07:56:48;100784.00;;;20.70
15626;BMP180;7912;51.376;6.126;2023-09-19T07:59:16;100775.00;;;20.80
15626;BMP180;7912;51.376;6.126;2023-09-19T08:01:45;100784.00;;;20.80
15626;BMP180;7912;51.376;6.126;2023-09-19T08:04:15;100784.00;;;20.80
15626;BMP180;7912;51.376;6.126;2023-09-19T08:06:46;100784.00;;;20.90
15626;BMP180;7912;51.376;6.126;2023-09-19T08:09:14;100781.00;;;20.90
15626;BMP180;7912;51.376;6.126;2023-09-19T08:11:56;100795.00;;;20.90
15626;BMP180;7912;51.376;6.126;2023-09-19T08:14:28;100791.00;;;20.90
15626;BMP180;7912;51.376;6.126;2023-09-19T08:17:00;100786.00;;;20.90
15626;BMP180;7912;51.376;6.126;2023-09-19T08:19:28;100791.00;;;21.00
15626;BMP180;7912;51.376;6.126;2023-09-19T08:21:59;100791.00;;;21.00
15626;BMP180;7912;51.376;6.126;2023-09-19T08:24:33;100804.00;;;21.10
15626;BMP180;7912;51.376;6.126;2023-09-19T08:27:03;100797.00;;;21.20
15626;BMP180;7912;51.376;6.126;2023-09-19T08:29:34;100797.00;;;21.30
15626;BMP180;7912;51.376;6.126;2023-09-19T08:32:02;100792.00;;;21.30
15626;BMP180;7912;51.376;6.126;2023-09-19T08:34:34;100781.00;;;21.40
15626;BMP180;7912;51.376;6.126;2023-09-19T08:37:06;100801.00;;;21.40
15626;BMP180;7912;51.376;6.126;2023-09-19T08:39:34;100803.00;;;21.40
15626;BMP180;7912;51.376;6.126;2023-09-19T08:42:04;100799.00;;;21.50
15626;BMP180;7912;51.376;6.126;2023-09-19T08:44:39;100797.00;;;21.50
15626;BMP180;7912;51.376;6.126;2023-09-19T08:47:15;100781.00;;;21.60
15626;BMP180;7912;51.376;6.126;2023-09-19T08:50:23;100784.00;;;21.60
15626;BMP180;7912;51.376;6.126;2023-09-19T08:52:55;100776.00;;;21.70
15626;BMP180;7912;51.376;6.126;2023-09-19T08:55:31;100795.00;;;21.70
15626;BMP180;7912;51.376;6.126;2023-09-19T08:58:06;100797.00;;;21.70
15626;BMP180;7912;51.376;6.126;2023-09-19T09:00:36;100793.00;;;21.80
15626;BMP180;7912;51.376;6.126;2023-09-19T09:03:09;100800.00;;;21.80
15626;BMP180;7912;51.376;6.126;2023-09-19T09:05:38;100781.00;;;21.80
15626;BMP180;7912;51.376;6.126;2023-09-19T09:08:13;100795.00;;;21.80
15626;BMP180;7912;51.376;6.126;2023-09-19T09:10:40;100775.00;;;21.90
15626;BMP180;7912;51.376;6.126;2023-09-19T09:13:10;100778.00;;;21.90
15626;BMP180;7912;51.376;6.126;2023-09-19T09:15:50;100784.00;;;22.00
15626;BMP180;7912;51.376;6.126;2023-09-19T09:18:22;100793.00;;;22.00
15626;BMP180;7912;51.376;6.126;2023-09-19T09:20:50;100786.00;;;22.10
15626;BMP180;7912;51.376;6.126;2023-09-19T09:23:18;100776.00;;;22.20
15626;BMP180;7912;51.376;6.126;2023-09-19T09:25:53;100782.00;;;22.10
15626;BMP180;7912;51.376;6.126;2023-09-19T09:28:29;100787.00;;;22.20
15626;BMP180;7912;51.376;6.126;2023-09-19T09:30:59;100788.00;;;22.20
15626;BMP180;7912;51.376;6.126;2023-09-19T09:33:30;100783.00;;;22.40
15626;BMP180;7912;51.376;6.126;2023-09-19T09:35:59;100784.00;;;22.50
15626;BMP180;7912;51.376;6.126;2023-09-19T09:38:30;100790.00;;;22.60
15626;BMP180;7912;51.376;6.126;2023-09-19T09:41:16;100784.00;;;22.80
15626;BMP180;7912;51.376;6.126;2023-09-19T09:43:56;100783.00;;;22.90
15626;BMP180;7912;51.376;6.126;2023-09-19T09:46:46;100773.00;;;23.10
15626;BMP180;7912;51.376;6.126;2023-09-19T09:49:27;100775.00;;;23.30
15626;BMP180;7912;51.376;6.126;2023-09-19T09:52:07;100762.00;;;23.50
15626;BMP180;7912;51.376;6.126;2023-09-19T09:54:38;100773.00;;;23.80
15626;BMP180;7912;51.376;6.126;2023-09-19T09:57:35;100780.00;;;24.10
15626;BMP180;7912;51.376;6.126;2023-09-19T10:00:09;100773.00;;;24.20
15626;BMP180;7912;51.376;6.126;2023-09-19T10:02:40;100774.00;;;24.30
15626;BMP180;7912;51.376;6.126;2023-09-19T10:05:20;100775.00;;;24.50
15626;BMP180;7912;51.376;6.126;2023-09-19T10:07:55;100780.00;;;24.60
15626;BMP180;7912;51.376;6.126;2023-09-19T10:10:37;100778.00;;;24.50
15626;BMP180;7912;51.376;6.126;2023-09-19T10:13:13;100779.00;;;24.40
15626;BMP180;7912;51.376;6.126;2023-09-19T10:15:49;100776.00;;;24.40
15626;BMP180;7912;51.376;6.126;2023-09-19T10:18:26;100768.00;;;24.40
15626;BMP180;7912;51.376;6.126;2023-09-19T10:21:02;100767.00;;;24.40
15626;BMP180;7912;51.376;6.126;2023-09-19T10:23:40;100758.00;;;24.30
15626;BMP180;7912;51.376;6.126;2023-09-19T10:26:18;100756.00;;;24.50
15626;BMP180;7912;51.376;6.126;2023-09-19T10:28:55;100746.00;;;24.80
15626;BMP180;7912;51.376;6.126;2023-09-19T10:31:32;100757.00;;;25.30
15626;BMP180;7912;51.376;6.126;2023-09-19T10:34:06;100745.00;;;25.40
15626;BMP180;7912;51.376;6.126;2023-09-19T10:37:11;100749.00;;;25.40
15626;BMP180;7912;51.376;6.126;2023-09-19T10:40:14;100752.00;;;25.40
15626;BMP180;7912;51.376;6.126;2023-09-19T10:42:46;100759.00;;;25.30
15626;BMP180;7912;51.376;6.126;2023-09-19T10:45:17;100767.00;;;25.20
15626;BMP180;7912;51.376;6.126;2023-09-19T10:47:51;100757.00;;;25.10
15626;BMP180;7912;51.376;6.126;2023-09-19T10:50:25;100754.00;;;25.10
15626;BMP180;7912;51.376;6.126;2023-09-19T10:52:55;100767.00;;;25.10
15626;BMP180;7912;51.376;6.126;2023-09-19T10:55:29;100757.00;;;25.20
15626;BMP180;7912;51.376;6.126;2023-09-19T10:58:02;100758.00;;;25.30
15626;BMP180;7912;51.376;6.126;2023-09-19T11:01:05;100769.00;;;25.50
15626;BMP180;7912;51.376;6.126;2023-09-19T11:03:35;100777.00;;;25.60
15626;BMP180;7912;51.376;6.126;2023-09-19T11:06:23;100768.00;;;25.60
15626;BMP180;7912;51.376;6.126;2023-09-19T11:08:59;100767.00;;;25.70
15626;BMP180;7912;51.376;6.126;2023-09-19T11:11:50;100772.00;;;25.90
15626;BMP180;7912;51.376;6.126;2023-09-19T11:30:58;100767.00;;;26.60
15626;BMP180;7912;51.376;6.126;2023-09-19T11:33:31;100765.00;;;26.50
15626;BMP180;7912;51.376;6.126;2023-09-19T11:36:12;100758.00;;;26.40
15626;BMP180;7912;51.376;6.126;2023-09-19T11:39:01;100728.00;;;26.40
15626;BMP180;7912;51.376;6.126;2023-09-19T11:41:43;100737.00;;;26.40
15626;BMP180;7912;51.376;6.126;2023-09-19T11:46:55;100728.00;;;26.40
15626;BMP180;7912;51.376;6.126;2023-09-19T11:49:30;100735.00;;;26.60
15626;BMP180;7912;51.376;6.126;2023-09-19T11:52:03;100730.00;;;26.80
15626;BMP180;7912;51.376;6.126;2023-09-19T11:54:45;100725.00;;;26.90
15626;BMP180;7912;51.376;6.126;2023-09-19T11:57:24;100727.00;;;27.00
15626;BMP180;7912;51.376;6.126;2023-09-19T11:59:55;100714.00;;;27.20
15626;BMP180;7912;51.376;6.126;2023-09-19T12:02:39;100712.00;;;27.30
15626;BMP180;7912;51.376;6.126;2023-09-19T12:05:10;100703.00;;;27.30
15626;BMP180;7912;51.376;6.126;2023-09-19T12:07:47;100715.00;;;27.30
15626;BMP180;7912;51.376;6.126;2023-09-19T12:10:20;100705.00;;;27.20
15626;BMP180;7912;51.376;6.126;2023-09-19T12:12:52;100710.00;;;27.00
15626;BMP180;7912;51.376;6.126;2023-09-19T12:15:25;100701.00;;;27.00
15626;BMP180;7912;51.376;6.126;2023-09-19T12:18:03;100706.00;;;26.90
15626;BMP180;7912;51.376;6.126;2023-09-19T12:20:44;100710.00;;;26.90
15626;BMP180;7912;51.376;6.126;2023-09-19T12:23:26;100698.00;;;27.00
15626;BMP180;7912;51.376;6.126;2023-09-19T12:26:02;100676.00;;;27.10
15626;BMP180;7912;51.376;6.126;2023-09-19T12:28:45;100697.00;;;27.20
15626;BMP180;7912;51.376;6.126;2023-09-19T12:31:27;100687.00;;;27.30
15626;BMP180;7912;51.376;6.126;2023-09-19T12:34:26;100694.00;;;27.30
15626;BMP180;7912;51.376;6.126;2023-09-19T12:37:16;100707.00;;;27.20
15626;BMP180;7912;51.376;6.126;2023-09-19T12:40:12;100695.00;;;27.10
15626;BMP180;7912;51.376;6.126;2023-09-19T12:43:03;100693.00;;;27.00
15626;BMP180;7912;51.376;6.126;2023-09-19T12:45:35;100707.00;;;26.90
15626;BMP180;7912;51.376;6.126;2023-09-19T12:48:26;100687.00;;;26.80
15626;BMP180;7912;51.376;6.126;2023-09-19T12:51:16;100694.00;;;26.70
15626;BMP180;7912;51.376;6.126;2023-09-19T12:53:59;100684.00;;;26.80
15626;BMP180;7912;51.376;6.126;2023-09-19T12:56:41;100711.00;;;26.90
15626;BMP180;7912;51.376;6.126;2023-09-19T12:59:32;100705.00;;;27.00
15626;BMP180;7912;51.376;6.126;2023-09-19T13:06:39;100703.00;;;26.70
15626;BMP180;7912;51.376;6.126;2023-09-19T13:13:23;100703.00;;;26.40
15626;BMP180;7912;51.376;6.126;2023-09-19T13:16:05;100707.00;;;26.30
15626;BMP180;7912;51.376;6.126;2023-09-19T13:18:54;100718.00;;;26.20
15626;BMP180;7912;51.376;6.126;2023-09-19T13:21:32;100715.00;;;26.20
15626;BMP180;7912;51.376;6.126;2023-09-19T13:24:24;100709.00;;;26.20
15626;BMP180;7912;51.376;6.126;2023-09-19T13:26:57;100708.00;;;26.10
15626;BMP180;7912;51.376;6.126;2023-09-19T13:29:30;100712.00;;;26.10
15626;BMP180;7912;51.376;6.126;2023-09-19T13:32:02;100714.00;;;26.00
15626;BMP180;7912;51.376;6.126;2023-09-19T13:34:36;100718.00;;;25.90
15626;BMP180;7912;51.376;6.126;2023-09-19T13:37:14;100719.00;;;25.90
15626;BMP180;7912;51.376;6.126;2023-09-19T13:39:45;100711.00;;;25.90
15626;BMP180;7912;51.376;6.126;2023-09-19T13:42:38;100713.00;;;25.80
15626;BMP180;7912;51.376;6.126;2023-09-19T13:45:10;100711.00;;;25.70
15626;BMP180;7912;51.376;6.126;2023-09-19T13:47:43;100717.00;;;25.70
15626;BMP180;7912;51.376;6.126;2023-09-19T13:50:15;100706.00;;;25.70
15626;BMP180;7912;51.376;6.126;2023-09-19T13:52:55;100721.00;;;25.70
15626;BMP180;7912;51.376;6.126;2023-09-19T13:55:29;100723.00;;;25.70
15626;BMP180;7912;51.376;6.126;2023-09-19T13:58:14;100711.00;;;25.70
15626;BMP180;7912;51.376;6.126;2023-09-19T14:00:45;100711.00;;;25.70
15626;BMP180;7912;51.376;6.126;2023-09-19T14:03:30;100717.00;;;25.80
15626;BMP180;7912;51.376;6.126;2023-09-19T14:06:05;100726.00;;;25.70
15626;BMP180;7912;51.376;6.126;2023-09-19T14:08:40;100714.00;;;25.50
15626;BMP180;7912;51.376;6.126;2023-09-19T14:11:18;100705.00;;;25.50
15626;BMP180;7912;51.376;6.126;2023-09-19T14:14:08;100716.00;;;25.40
15626;BMP180;7912;51.376;6.126;2023-09-19T14:16:42;100710.00;;;25.30
15626;BMP180;7912;51.376;6.126;2023-09-19T14:19:11;100720.00;;;25.30
15626;BMP180;7912;51.376;6.126;2023-09-19T14:21:52;100703.00;;;25.30
15626;BMP180;7912;51.376;6.126;2023-09-19T14:24:28;100723.00;;;25.20
15626;BMP180;7912;51.376;6.126;2023-09-19T14:27:07;100725.00;;;25.10
15626;BMP180;7912;51.376;6.126;2023-09-19T14:29:36;100729.00;;;25.00
15626;BMP180;7912;51.376;6.126;2023-09-19T14:32:05;100719.00;;;24.90
15626;BMP180;7912;51.376;6.126;2023-09-19T14:34:47;100715.00;;;24.80
15626;BMP180;7912;51.376;6.126;2023-09-19T14:37:16;100697.00;;;24.80
15626;BMP180;7912;51.376;6.126;2023-09-19T14:39:43;100705.00;;;24.70
15626;BMP180;7912;51.376;6.126;2023-09-19T14:42:13;100700.00;;;24.70
15626;BMP180;7912;51.376;6.126;2023-09-19T14:44:50;100714.00;;;24.70
15626;BMP180;7912;51.376;6.126;2023-09-19T14:47:19;100713.00;;;24.70
15626;BMP180;7912;51.376;6.126;2023-09-19T14:50:23;100711.00;;;24.60
15626;BMP180;7912;51.376;6.126;2023-09-19T14:52:52;100706.00;;;24.60
15626;BMP180;7912;51.376;6.126;2023-09-19T14:55:23;100701.00;;;24.60
15626;BMP180;7912;51.376;6.126;2023-09-19T14:58:16;100702.00;;;24.60
15626;BMP180;7912;51.376;6.126;2023-09-19T15:01:34;100718.00;;;24.60
15626;BMP180;7912;51.376;6.126;2023-09-19T15:04:16;100704.00;;;24.70
15626;BMP180;7912;51.376;6.126;2023-09-19T15:06:47;100703.00;;;24.80
15626;BMP180;7912;51.376;6.126;2023-09-19T15:09:23;100699.00;;;25.00
15626;BMP180;7912;51.376;6.126;2023-09-19T15:12:01;100689.00;;;25.20
15626;BMP180;7912;51.376;6.126;2023-09-19T15:14:37;100693.00;;;25.40
15626;BMP180;7912;51.376;6.126;2023-09-19T15:17:25;100696.00;;;25.50
15626;BMP180;7912;51.376;6.126;2023-09-19T15:20:07;100698.00;;;25.50
15626;BMP180;7912;51.376;6.126;2023-09-19T15:22:57;100685.00;;;25.50
15626;BMP180;7912;51.376;6.126;2023-09-19T15:25:28;100677.00;;;25.50
15626;BMP180;7912;51.376;6.126;2023-09-19T15:28:07;100694.00;;;25.50
15626;BMP180;7912;51.376;6.126;2023-09-19T15:30:40;100679.00;;;25.50
15626;BMP180;7912;51.376;6.126;2023-09-19T15:33:41;100681.00;;;25.40
15626;BMP180;7912;51.376;6.126;2023-09-19T15:36:16;100668.00;;;25.30
15626;BMP180;7912;51.376;6.126;2023-09-19T15:39:29;100676.00;;;25.20